Time;durP1;ratioP1;P1;durP2;ratioP2;P2;SDS_P1;SDS_P2;PMS_P1;PMS_P2;Temp;Humidity;BMP_temperature;BMP_pressure;BME280_temperature;BME280_humidity;BME280_pressure;Samples;Min_cycle;Max_cycle;Signal;HPM_P1;HPM_P2
2023/10/25 00:00:03;;;;;;;1999.90;999.90;;;;;;;14.94;76.31;100059.69;10540286;28;20058;-65
2023/10/25 00:05:06;;;;;;;1999.90;999.90;;;;;;;15.19;76.74;100056.53;10521492;28;20123;-65
2023/10/25 00:10:10;;;;;;;1999.90;999.90;;;;;;;14.58;77.40;100057.44;10540032;28;20054;-65
2023/10/25 00:15:13;;;;;;;1999.90;999.90;;;;;;;14.79;79.02;100049.53;10539293;28;20408;-65
2023/10/25 00:20:15;;;;;;;1999.90;999.90;;;;;;;14.90;76.73;100053.03;10539149;28;20123;-65
2023/10/25 00:25:17;;;;;;;1999.90;999.90;;;;;;;14.62;78.37;100058.88;10521910;28;20048;-65
2023/10/25 00:30:20;;;;;;;1999.90;999.90;;;;;;;14.80;77.77;100047.72;10539682;28;20044;-65
2023/10/25 00:35:22;;;;;;;1999.90;999.90;;;;;;;14.47;77.99;100055.75;10539299;28;20135;-65
2023/10/25 00:40:25;;;;;;;1999.90;999.90;;;;;;;14.78;77.77;100047.84;10539619;28;20063;-65
2023/10/25 00:45:27;;;;;;;1999.90;999.90;;;;;;;14.63;78.22;100055.28;10539279;28;20083;-65
2023/10/25 00:50:30;;;;;;;1999.90;999.90;;;;;;;14.65;78.86;100055.97;10520658;28;20050;-65
2023/10/25 00:55:32;;;;;;;1999.90;999.90;;;;;;;14.45;78.57;100060.28;10521237;28;20058;-65
2023/10/25 01:00:35;;;;;;;1999.90;999.90;;;;;;;14.49;78.51;100066.13;10522582;28;20058;-65
2023/10/25 01:05:37;;;;;;;1999.90;999.90;;;;;;;14.97;77.28;100056.78;10546232;28;20044;-65
2023/10/25 01:10:40;;;;;;;1999.90;999.90;;;;;;;14.74;76.89;100051.69;10546701;28;20043;-65
2023/10/25 01:15:42;;;;;;;1999.90;999.90;;;;;;;14.83;76.19;100048.28;10545845;28;20091;-65
2023/10/25 01:20:45;;;;;;;1999.90;999.90;;;;;;;14.81;74.64;100049.38;10546238;28;20048;-65
2023/10/25 01:25:47;;;;;;;1999.90;999.90;;;;;;;14.50;78.82;100044.91;10546064;28;20087;-65
2023/10/25 01:30:50;;;;;;;1999.90;999.90;;;;;;;14.58;76.56;100038.19;10528054;28;20075;-65
2023/10/25 01:35:52;;;;;;;1999.90;999.90;;;;;;;14.39;78.36;100031.84;10544946;28;20504;-65
2023/10/25 01:40:54;;;;;;;1999.90;999.90;;;;;;;14.16;76.59;100027.72;10545527;28;20044;-65
2023/10/25 01:45:57;;;;;;;1999.90;999.90;;;;;;;14.06;77.56;100033.75;10527303;28;20044;-65
2023/10/25 01:50:59;;;;;;;1999.90;999.90;;;;;;;14.17;75.91;100024.09;10545129;28;20123;-65
2023/10/25 01:56:02;;;;;;;1999.90;999.90;;;;;;;14.34;75.89;100017.41;10544900;28;20117;-65
2023/10/25 02:01:06;;;;;;;1999.90;999.90;;;;;;;14.27;77.19;100011.81;10544052;28;20393;-65
2023/10/25 02:06:15;;;;;;;1999.90;999.90;;;;;;;14.27;77.61;100009.19;10544427;28;20054;-65
2023/10/25 02:11:20;;;;;;;1999.90;999.90;;;;;;;13.93;79.66;100004.16;10525312;28;20405;-65
2023/10/25 02:16:23;;;;;;;1999.90;999.90;;;;;;;13.85;80.09;99986.41;10544133;28;20105;-65
2023/10/25 02:21:25;;;;;;;1999.90;999.90;;;;;;;13.77;80.81;99987.97;10526170;28;20040;-65
2023/10/25 02:26:28;;;;;;;1999.90;999.90;;;;;;;13.96;78.09;99985.47;10542986;28;20405;-65
2023/10/25 02:31:33;;;;;;;1999.90;999.90;;;;;;;14.26;77.93;99979.41;10543621;28;20048;-65
2023/10/25 02:36:35;;;;;;;1999.90;999.90;;;;;;;13.14;80.66;99968.50;10524835;28;20058;-64
2023/10/25 02:41:38;;;;;;;1999.90;999.90;;;;;;;13.40;82.16;99957.69;10543031;28;20084;-65
2023/10/25 02:46:40;;;;;;;1999.90;999.90;;;;;;;13.68;79.28;99958.84;10542171;28;20044;-65
2023/10/25 02:51:43;;;;;;;1999.90;999.90;;;;;;;14.01;78.28;99967.50;10542005;28;20489;-65
2023/10/25 02:56:45;;;;;;;1999.90;999.90;;;;;;;13.37;79.78;99965.84;10541833;28;20404;-65
2023/10/25 03:01:47;;;;;;;1999.90;999.90;;;;;;;13.98;78.07;99957.22;10542244;28;20048;-65
2023/10/25 03:06:50;;;;;;;1999.90;999.90;;;;;;;13.67;79.09;99946.69;10542049;28;20075;-65
2023/10/25 03:11:52;;;;;;;1999.90;999.90;;;;;;;13.94;78.12;99930.34;10541304;28;20458;-65
2023/10/25 03:16:55;;;;;;;1999.90;999.90;;;;;;;14.03;78.21;99931.34;10523798;28;20073;-65
2023/10/25 03:21:59;;;;;;;1999.90;999.90;;;;;;;13.65;80.68;99924.09;10540516;28;20519;-65
2023/10/25 03:27:01;;;;;;;1999.90;999.90;;;;;;;14.23;77.27;99924.38;10541047;28;20101;-65
2023/10/25 03:32:04;;;;;;;1999.90;999.90;;;;;;;13.71;80.39;99936.72;10541176;28;20167;-65
2023/10/25 03:37:06;;;;;;;1999.90;999.90;;;;;;;13.72;79.10;99920.81;10540521;28;20056;-65
2023/10/25 03:42:09;;;;;;;1999.90;999.90;;;;;;;13.55;81.67;99929.31;10540818;28;20048;-65
2023/10/25 03:47:11;;;;;;;1999.90;999.90;;;;;;;13.52;80.38;99914.59;10540141;28;20477;-65
2023/10/25 03:52:14;;;;;;;1999.90;999.90;;;;;;;13.50;80.49;99903.38;10540518;28;20044;-65
2023/10/25 03:57:16;;;;;;;1999.90;999.90;;;;;;;13.53;78.45;99903.13;10540348;28;20051;-64
2023/10/25 04:02:18;;;;;;;1999.90;999.90;;;;;;;13.33;80.03;99907.44;10539621;28;20412;-64
2023/10/25 04:07:21;;;;;;;1999.90;999.90;;;;;;;13.02;82.58;99899.38;10540035;28;20043;-65
2023/10/25 04:12:23;;;;;;;1999.90;999.90;;;;;;;13.66;80.08;99892.41;10539970;28;20047;-65
2023/10/25 04:17:25;;;;;;;1999.90;999.90;;;;;;;13.51;80.74;99886.63;10539275;28;20044;-65
2023/10/25 04:22:28;;;;;;;1999.90;999.90;;;;;;;14.00;78.42;99883.41;10539202;28;20458;-65
2023/10/25 04:27:30;;;;;;;1999.90;999.90;;;;;;;13.68;79.07;99879.94;10521761;28;20123;-65
2023/10/25 04:32:33;;;;;;;1999.90;999.90;;;;;;;13.35;83.43;99879.22;10539673;28;20062;-65
2023/10/25 04:37:35;;;;;;;1999.90;999.90;;;;;;;13.38;82.50;99864.94;10546093;28;20478;-65
2023/10/25 04:42:39;;;;;;;1999.90;999.90;;;;;;;13.00;82.28;99866.34;10529482;28;20060;-65
2023/10/25 04:47:42;;;;;;;1999.90;999.90;;;;;;;13.38;82.21;99867.59;10547579;28;20044;-64
2023/10/25 04:52:44;;;;;;;1999.90;999.90;;;;;;;13.73;82.94;99864.63;10547489;28;20051;-65
2023/10/25 04:57:46;;;;;;;1999.90;999.90;;;;;;;13.31;82.51;99855.88;10547260;28;20040;-65
2023/10/25 05:02:49;;;;;;;1999.90;999.90;;;;;;;13.32;82.47;99855.78;10546508;28;20047;-64
2023/10/25 05:07:52;;;;;;;1999.90;999.90;;;;;;;13.77;81.60;99854.66;10512284;28;20067;-65
2023/10/25 05:12:55;;;;;;;1999.90;999.90;;;;;;;13.84;81.69;99841.81;10546709;28;20044;-64
2023/10/25 05:17:57;;;;;;;1999.90;999.90;;;;;;;13.95;81.99;99839.06;10545822;28;20591;-65
2023/10/25 05:23:03;;;;;;;1999.90;999.90;;;;;;;14.10;79.98;99831.63;10546313;28;20105;-64
2023/10/25 05:28:06;;;;;;;1999.90;999.90;;;;;;;13.48;82.64;99823.81;10528237;28;20047;-64
2023/10/25 05:33:09;;;;;;;1999.90;999.90;;;;;;;13.73;81.51;99822.53;10545919;28;20048;-65
2023/10/25 05:38:13;;;;;;;1999.90;999.90;;;;;;;13.76;82.38;99816.16;10545008;28;20055;-65
2023/10/25 05:43:15;;;;;;;1999.90;999.90;;;;;;;13.65;82.60;99809.22;10545532;28;20063;-65
2023/10/25 05:48:18;;;;;;;1999.90;999.90;;;;;;;13.91;83.14;99803.47;10526502;28;20056;-65
2023/10/25 05:53:21;;;;;;;1999.90;999.90;;;;;;;13.83;81.11;99796.25;10526551;28;20385;-65
2023/10/25 05:58:24;;;;;;;1999.90;999.90;;;;;;;13.96;81.58;99790.75;10544186;28;20070;-65
2023/10/25 06:03:28;;;;;;;1999.90;999.90;;;;;;;13.72;81.73;99804.25;10544681;28;20070;-65
2023/10/25 06:08:34;;;;;;;1999.90;999.90;;;;;;;14.18;81.31;99807.28;10527047;28;20052;-65
2023/10/25 06:13:37;;;;;;;1999.90;999.90;;;;;;;14.61;78.53;99801.69;10543683;28;20059;-62
2023/10/25 06:18:39;;;;;;;1999.90;999.90;;;;;;;14.01;81.35;99793.00;10543383;28;20079;-62
2023/10/25 06:23:42;;;;;;;1999.90;999.90;;;;;;;13.72;81.40;99788.47;10525890;28;20078;-65
2023/10/25 06:28:44;;;;;;;1999.90;999.90;;;;;;;14.75;78.00;99784.63;10543591;28;20044;-65
2023/10/25 06:33:46;;;;;;;1999.90;999.90;;;;;;;14.48;77.73;99778.22;10542796;28;20111;-65
2023/10/25 06:38:49;;;;;;;1999.90;999.90;;;;;;;14.61;79.28;99769.25;10524462;28;20508;-65
2023/10/25 06:43:52;;;;;;;1999.90;999.90;;;;;;;13.97;79.67;99771.38;10543061;28;20127;-65
2023/10/25 06:48:56;;;;;;;1999.90;999.90;;;;;;;14.27;78.60;99767.81;10542797;28;20046;-65
2023/10/25 06:53:59;;;;;;;1999.90;999.90;;;;;;;14.63;77.94;99764.69;10542673;28;20051;-65
2023/10/25 06:59:01;;;;;;;1999.90;999.90;;;;;;;14.49;78.24;99752.69;10540853;28;20392;-65
2023/10/25 07:04:04;;;;;;;1999.90;999.90;;;;;;;14.57;78.16;99744.13;10542361;28;20094;-65
2023/10/25 07:09:07;;;;;;;1999.90;999.90;;;;;;;14.25;79.92;99737.31;10524132;28;20051;-65
2023/10/25 07:14:09;;;;;;;1999.90;999.90;;;;;;;14.47;78.90;99729.16;10541858;28;20055;-65
2023/10/25 07:19:12;;;;;;;1999.90;999.90;;;;;;;14.75;77.32;99721.38;10541756;28;20122;-65
2023/10/25 07:24:14;;;;;;;1999.90;999.90;;;;;;;15.28;76.36;99716.53;10540904;28;20062;-65
2023/10/25 07:29:17;;;;;;;1999.90;999.90;;;;;;;14.58;77.08;99708.91;10523026;28;20040;-65
2023/10/25 07:34:20;;;;;;;1999.90;999.90;;;;;;;15.07;77.39;99691.22;10541193;28;20052;-65
2023/10/25 07:39:22;;;;;;;1999.90;999.90;;;;;;;14.90;76.68;99681.44;10522462;28;20135;-65
2023/10/25 07:44:25;;;;;;;1999.90;999.90;;;;;;;14.57;78.56;99676.47;10540782;28;20056;-65
2023/10/25 07:49:27;;;;;;;1999.90;999.90;;;;;;;15.12;76.66;99673.16;10505988;28;20047;-65
2023/10/25 07:54:30;;;;;;;1999.90;999.90;;;;;;;15.02;77.39;99662.66;10539911;28;20134;-65
2023/10/25 07:59:32;;;;;;;1999.90;999.90;;;;;;;14.85;78.30;99660.78;10539797;28;20443;-65
2023/10/25 08:04:34;;;;;;;1999.90;999.90;;;;;;;14.62;80.09;99649.72;10539655;28;20489;-65
2023/10/25 08:09:40;;;;;;;1999.90;999.90;;;;;;;14.80;79.80;99649.84;10539698;28;20136;-65
2023/10/25 08:14:42;;;;;;;1999.90;999.90;;;;;;;14.59;79.53;99639.47;10522248;28;20048;-65
2023/10/25 08:19:45;;;;;;;1999.90;999.90;;;;;;;14.85;79.13;99639.69;10522091;28;20052;-65
2023/10/25 08:24:47;;;;;;;1999.90;999.90;;;;;;;14.53;80.22;99630.31;10539739;28;20048;-65
2023/10/25 08:29:50;;;;;;;1999.90;999.90;;;;;;;14.64;79.96;99632.81;10539082;28;20386;-65
2023/10/25 08:34:52;;;;;;;1999.90;999.90;;;;;;;14.83;78.51;99624.03;10521570;28;20048;-64
2023/10/25 08:39:54;;;;;;;1999.90;999.90;;;;;;;14.47;80.33;99625.59;10538954;28;20548;-65
2023/10/25 08:44:57;;;;;;;1999.90;999.90;;;;;;;14.75;79.76;99618.63;10539389;28;20052;-65
2023/10/25 08:49:59;;;;;;;1999.90;999.90;;;;;;;15.15;79.52;99612.25;10539394;28;20130;-65
2023/10/25 08:55:02;;;;;;;1999.90;999.90;;;;;;;15.26;78.55;99615.66;10539327;28;20052;-65
2023/10/25 09:00:09;;;;;;;1999.90;999.90;;;;;;;14.82;79.94;99598.63;10539168;28;20055;-65
2023/10/25 09:05:12;;;;;;;1999.90;999.90;;;;;;;15.48;76.99;99606.50;10521228;28;20374;-65
2023/10/25 09:10:17;;;;;;;1999.90;999.90;;;;;;;16.32;74.40;99582.38;10539008;28;20136;-65
2023/10/25 09:15:29;;;;;;;1999.90;999.90;;;;;;;15.81;75.37;99568.09;10521302;28;20132;-65
2023/10/25 09:20:32;;;;;;;1999.90;999.90;;;;;;;15.66;76.09;99572.22;10538573;28;20455;-65
2023/10/25 09:25:37;;;;;;;1999.90;999.90;;;;;;;15.76;76.17;99562.44;10545548;28;20413;-65
2023/10/25 09:30:39;;;;;;;1999.90;999.90;;;;;;;15.38;77.64;99567.00;10545390;28;20485;-65
2023/10/25 09:35:42;;;;;;;1999.90;999.90;;;;;;;15.47;76.61;99560.84;10545459;28;20051;-65
2023/10/25 09:40:46;;;;;;;1999.90;999.90;;;;;;;15.51;76.91;99559.53;10528022;28;20134;-65
2023/10/25 09:45:52;;;;;;;1999.90;999.90;;;;;;;15.57;77.42;99553.69;10527497;28;20127;-65
2023/10/25 09:51:08;;;;;;;1999.90;999.90;;;;;;;16.01;75.57;99542.34;10495730;22;20050;-60
2023/10/25 09:56:11;;;;;;;1999.90;999.90;;;;;;;15.75;77.72;99537.00;10355860;28;20046;-60
2023/10/25 10:01:14;;;;;;;1999.90;999.90;;;;;;;16.13;74.80;99525.28;10355006;28;20494;-60
2023/10/25 10:06:35;;;;;;;1999.90;999.90;;;;;;;16.35;75.93;99517.81;10354705;28;20543;-61
2023/10/25 10:11:43;;;;;;;1999.90;999.90;;;;;;;16.55;76.33;99499.09;10371958;28;20054;-61
2023/10/25 10:16:46;;;;;;;1999.90;999.90;;;;;;;16.08;80.02;99489.78;10372519;28;20053;-61
2023/10/25 10:22:05;;;;;;;1999.90;999.90;;;;;;;16.65;77.47;99481.31;10371624;28;20512;-61
2023/10/25 10:27:09;;;;;;;1999.90;999.90;;;;;;;16.41;78.07;99476.72;10371409;28;20108;-61
2023/10/25 10:32:12;;;;;;;1999.90;999.90;;;;;;;16.19;78.57;99470.19;10371642;28;20060;-61
2023/10/25 10:37:24;;;;;;;1999.90;999.90;;;;;;;16.69;76.53;99462.34;10371103;28;20387;-61
2023/10/25 10:42:29;;;;;;;1999.90;999.90;;;;;;;16.50;75.85;99466.03;10371667;28;20053;-61
2023/10/25 10:47:44;;;;;;;1999.90;999.90;;;;;;;17.04;75.42;99468.38;10370724;28;20407;-61
2023/10/25 10:52:48;;;;;;;1999.90;999.90;;;;;;;16.91;75.94;99457.44;10370376;28;20520;-61
2023/10/25 10:57:51;;;;;;;1999.90;999.90;;;;;;;16.89;75.79;99446.22;10371083;28;20073;-61
2023/10/25 11:03:09;;;;;;;1999.90;999.90;;;;;;;16.89;76.42;99425.06;10341462;28;20449;-61
2023/10/25 11:08:13;;;;;;;1999.90;999.90;;;;;;;16.90;77.08;99413.53;10370076;28;20050;-61
2023/10/25 11:13:17;;;;;;;1999.90;999.90;;;;;;;16.96;78.01;99406.75;10353650;28;20057;-61
2023/10/25 11:18:19;;;;;;;1999.90;999.90;;;;;;;16.88;78.13;99387.25;10370436;28;20050;-61
2023/10/25 11:23:22;;;;;;;1999.90;999.90;;;;;;;16.40;82.67;99374.72;10370316;28;20054;-61
2023/10/25 11:28:25;;;;;;;1999.90;999.90;;;;;;;16.51;84.10;99353.31;10369473;28;20407;-61
2023/10/25 11:33:27;;;;;;;1999.90;999.90;;;;;;;15.94;83.92;99352.09;10352647;28;20056;-61
2023/10/25 11:38:30;;;;;;;1999.90;999.90;;;;;;;16.44;82.99;99341.69;10369791;28;20121;-61
2023/10/25 11:43:32;;;;;;;1999.90;999.90;;;;;;;16.07;85.24;99335.84;10369006;28;20107;-61
2023/10/25 11:48:35;;;;;;;1999.90;999.90;;;;;;;16.33;83.57;99324.34;10351503;28;20417;-61
2023/10/25 11:53:37;;;;;;;1999.90;999.90;;;;;;;16.28;83.24;99308.16;10368788;28;20417;-61
2023/10/25 11:58:40;;;;;;;1999.90;999.90;;;;;;;15.53;86.44;99308.81;10369309;28;20073;-61
2023/10/25 12:03:42;;;;;;;1999.90;999.90;;;;;;;16.09;85.76;99306.63;10369123;28;20056;-61
2023/10/25 12:08:44;;;;;;;1999.90;999.90;;;;;;;16.21;85.56;99286.84;10368369;28;20061;-61
2023/10/25 12:13:47;;;;;;;1999.90;999.90;;;;;;;15.93;86.43;99283.63;10368844;28;20103;-61
2023/10/25 12:18:49;;;;;;;1999.90;999.90;;;;;;;16.38;83.99;99276.34;10367990;28;20500;-61
2023/10/25 12:23:52;;;;;;;1999.90;999.90;;;;;;;16.42;81.16;99264.44;10368771;28;20089;-62
2023/10/25 12:28:54;;;;;;;1999.90;999.90;;;;;;;16.39;83.04;99262.13;10367725;28;20054;-61
2023/10/25 12:33:56;;;;;;;1999.90;999.90;;;;;;;16.07;87.38;99251.34;10368406;28;20046;-61
2023/10/25 12:38:59;;;;;;;1999.90;999.90;;;;;;;16.16;85.31;99250.38;10368281;28;20052;-61
2023/10/25 12:44:08;;;;;;;1999.90;999.90;;;;;;;16.11;85.35;99236.84;10367440;28;20054;-61
2023/10/25 12:49:11;;;;;;;1999.90;999.90;;;;;;;15.94;87.23;99225.41;10367981;28;20041;-61
2023/10/25 12:54:14;;;;;;;1999.90;999.90;;;;;;;16.10;86.61;99231.72;10349697;28;20093;-61
2023/10/25 12:59:17;;;;;;;1999.90;999.90;;;;;;;16.26;83.40;99213.25;10357489;28;20050;-62
2023/10/25 13:04:19;;;;;;;1999.90;999.90;;;;;;;15.79;85.52;99211.19;10374020;28;20380;-61
2023/10/25 13:09:22;;;;;;;1999.90;999.90;;;;;;;16.05;86.38;99208.44;10374532;28;20081;-61
2023/10/25 13:14:25;;;;;;;1999.90;999.90;;;;;;;16.13;87.65;99197.06;10374370;28;20054;-61
2023/10/25 13:19:29;;;;;;;1999.90;999.90;;;;;;;16.32;86.38;99188.84;10373629;28;20046;-62
2023/10/25 13:24:31;;;;;;;1999.90;999.90;;;;;;;15.87;87.34;99183.97;10357043;28;20049;-61
2023/10/25 13:29:34;;;;;;;1999.90;999.90;;;;;;;15.67;89.83;99176.34;10373254;28;20398;-61
2023/10/25 13:34:36;;;;;;;1999.90;999.90;;;;;;;16.67;85.33;99170.16;10356406;28;20077;-61
2023/10/25 13:39:38;;;;;;;1999.90;999.90;;;;;;;16.45;84.75;99167.22;10355785;28;20504;-62
2023/10/25 13:44:41;;;;;;;1999.90;999.90;;;;;;;15.78;85.96;99159.38;10356117;28;20049;-61
2023/10/25 13:49:44;;;;;;;1999.90;999.90;;;;;;;15.58;89.67;99159.66;10373185;28;20129;-62
2023/10/25 13:54:47;;;;;;;1999.90;999.90;;;;;;;15.95;87.97;99158.44;10372446;28;20057;-61
2023/10/25 13:59:49;;;;;;;1999.90;999.90;;;;;;;16.05;87.19;99153.00;10372988;28;20050;-62
2023/10/25 14:04:52;;;;;;;1999.90;999.90;;;;;;;15.74;87.77;99140.41;10372265;28;20054;-61
2023/10/25 14:09:54;;;;;;;1999.90;999.90;;;;;;;15.60;84.63;99143.63;10371992;28;20046;-61
2023/10/25 14:14:56;;;;;;;1999.90;999.90;;;;;;;16.28;85.17;99141.81;10354529;28;20535;-62
2023/10/25 14:19:59;;;;;;;1999.90;999.90;;;;;;;16.23;85.33;99130.91;10372338;28;20080;-62
2023/10/25 14:25:01;;;;;;;1999.90;999.90;;;;;;;16.78;82.55;99127.53;10372166;28;20050;-62
2023/10/25 14:30:05;;;;;;;1999.90;999.90;;;;;;;15.95;86.20;99120.66;10370609;28;20214;-61
2023/10/25 14:35:07;;;;;;;1999.90;999.90;;;;;;;16.57;84.65;99122.78;10372081;28;20072;-61
2023/10/25 14:40:10;;;;;;;1999.90;999.90;;;;;;;17.05;81.31;99117.59;10354274;28;20046;-61
2023/10/25 14:45:13;;;;;;;1999.90;999.90;;;;;;;16.63;83.06;99108.09;10371573;28;20046;-61
2023/10/25 14:50:15;;;;;;;1999.90;999.90;;;;;;;16.89;83.15;99099.94;10353397;28;20046;-61
2023/10/25 14:55:18;;;;;;;1999.90;999.90;;;;;;;16.95;81.00;99106.38;10328713;28;20103;-62
2023/10/25 15:00:20;;;;;;;1999.90;999.90;;;;;;;16.03;84.65;99094.28;10330607;28;20051;-62
2023/10/25 15:05:23;;;;;;;1999.90;999.90;;;;;;;16.11;86.81;99099.56;10330443;28;20054;-62
2023/10/25 15:10:28;;;;;;;1999.90;999.90;;;;;;;16.60;84.50;99096.03;10329129;28;20047;-62
2023/10/25 15:15:30;;;;;;;1999.90;999.90;;;;;;;16.51;85.75;99092.59;10329498;28;20541;-62
2023/10/25 15:20:37;;;;;;;1999.90;999.90;;;;;;;16.74;82.75;99098.97;10328276;28;20050;-62
2023/10/25 15:25:41;;;;;;;1999.90;999.90;;;;;;;16.30;85.06;99085.19;10329297;28;20053;-62
2023/10/25 15:30:44;;;;;;;1999.90;999.90;;;;;;;16.12;87.10;99084.53;10329842;28;20055;-62
2023/10/25 15:35:59;;;;;;;1999.90;999.90;;;;;;;16.68;85.46;99082.00;10327832;28;20046;-62
2023/10/25 15:41:14;;;;;;;1999.90;999.90;;;;;;;16.29;86.58;99075.63;10329457;28;20054;-62
2023/10/25 15:46:27;;;;;;;1999.90;999.90;;;;;;;16.70;85.39;99086.09;10327974;28;20046;-62
2023/10/25 15:51:30;;;;;;;1999.90;999.90;;;;;;;16.09;87.49;99087.53;10334704;28;20056;-62
2023/10/25 15:56:33;;;;;;;1999.90;999.90;;;;;;;15.76;88.33;99088.31;10368784;28;20414;-62
2023/10/25 16:01:35;;;;;;;1999.90;999.90;;;;;;;17.08;81.25;99077.59;10369242;28;20060;-62
2023/10/25 16:06:53;;;;;;;1999.90;999.90;;;;;;;16.48;84.82;99082.34;10369204;28;20042;-62
2023/10/25 16:11:55;;;;;;;1999.90;999.90;;;;;;;16.46;85.12;99089.63;10369016;28;20054;-62
2023/10/25 16:16:58;;;;;;;1999.90;999.90;;;;;;;16.98;81.36;99076.94;10368164;28;20064;-62
2023/10/25 16:22:01;;;;;;;1999.90;999.90;;;;;;;17.06;80.20;99083.03;10351625;28;20082;-62
2023/10/25 16:27:04;;;;;;;1999.90;999.90;;;;;;;17.05;82.06;99080.56;10367900;28;20392;-62
2023/10/25 16:32:06;;;;;;;1999.90;999.90;;;;;;;16.76;81.96;99083.78;10372009;28;20080;-62
2023/10/25 16:37:08;;;;;;;1999.90;999.90;;;;;;;15.81;85.95;99082.56;10358402;28;20099;-62
2023/10/25 16:42:17;;;;;;;1999.90;999.90;;;;;;;16.84;81.18;99087.22;10358180;28;20561;-62
2023/10/25 16:47:21;;;;;;;1999.90;999.90;;;;;;;16.06;88.07;99091.31;10375253;28;20088;-62
2023/10/25 16:52:24;;;;;;;1999.90;999.90;;;;;;;16.53;83.26;99093.25;10374349;28;20061;-62
2023/10/25 16:57:26;;;;;;;1999.90;999.90;;;;;;;16.81;82.19;99094.66;10374348;28;20084;-62
2023/10/25 17:02:30;;;;;;;1999.90;999.90;;;;;;;17.28;79.27;99101.75;10374150;28;20411;-61
2023/10/25 17:07:32;;;;;;;1999.90;999.90;;;;;;;17.07;79.42;99103.19;10374755;28;20050;-62
2023/10/25 17:12:35;;;;;;;1999.90;999.90;;;;;;;16.68;80.51;99111.06;10373823;28;20464;-62
2023/10/25 17:17:37;;;;;;;1999.90;999.90;;;;;;;16.97;79.90;99115.78;10374532;28;20050;-62
2023/10/25 17:22:40;;;;;;;1999.90;999.90;;;;;;;16.80;80.72;99124.72;10374216;28;20050;-62
2023/10/25 17:27:42;;;;;;;1999.90;999.90;;;;;;;16.93;80.14;99119.78;10356675;28;20058;-62
2023/10/25 17:32:45;;;;;;;1999.90;999.90;;;;;;;17.22;77.13;99121.00;10373884;28;20052;-62
2023/10/25 17:37:48;;;;;;;1999.90;999.90;;;;;;;16.96;78.75;99127.34;10373745;28;20074;-62
2023/10/25 17:42:51;;;;;;;1999.90;999.90;;;;;;;17.51;77.20;99124.81;10371994;28;20056;-62
2023/10/25 17:47:53;;;;;;;1999.90;999.90;;;;;;;16.22;82.91;99123.97;10373213;28;20046;-62
2023/10/25 17:52:56;;;;;;;1999.90;999.90;;;;;;;16.83;80.96;99127.03;10355195;28;20054;-62
2023/10/25 17:58:00;;;;;;;1999.90;999.90;;;;;;;16.33;80.93;99128.94;10373099;28;20046;-62
2023/10/25 18:03:04;;;;;;;1999.90;999.90;;;;;;;16.75;81.53;99140.28;10372828;28;20129;-62
2023/10/25 18:08:07;;;;;;;1999.90;999.90;;;;;;;16.93;80.32;99138.28;10372646;28;20050;-62
2023/10/25 18:13:10;;;;;;;1999.90;999.90;;;;;;;16.57;81.55;99143.91;10355300;28;20050;-62
2023/10/25 18:18:12;;;;;;;1999.90;999.90;;;;;;;16.76;79.62;99150.69;10355278;28;20091;-62
2023/10/25 18:23:15;;;;;;;1999.90;999.90;;;;;;;17.36;77.35;99146.69;10372289;28;20046;-62
2023/10/25 18:28:18;;;;;;;1999.90;999.90;;;;;;;16.97;80.38;99155.44;10371438;28;20547;-62
2023/10/25 18:33:21;;;;;;;1999.90;999.90;;;;;;;17.04;80.07;99160.88;10354137;28;20514;-62
2023/10/25 18:38:24;;;;;;;1999.90;999.90;;;;;;;17.16;78.10;99164.78;10371201;28;20506;-62
2023/10/25 18:43:27;;;;;;;1999.90;999.90;;;;;;;16.55;82.24;99164.41;10371018;28;20514;-62
2023/10/25 18:48:29;;;;;;;1999.90;999.90;;;;;;;16.95;78.54;99159.25;10370799;28;20509;-62
2023/10/25 18:53:32;;;;;;;1999.90;999.90;;;;;;;17.20;78.13;99170.59;10353390;28;20064;-62
2023/10/25 18:58:34;;;;;;;1999.90;999.90;;;;;;;17.02;79.06;99174.25;10371180;28;20057;-62
2023/10/25 19:03:36;;;;;;;1999.90;999.90;;;;;;;16.94;79.96;99182.19;10370988;28;20125;-62
2023/10/25 19:08:40;;;;;;;1999.90;999.90;;;;;;;17.07;80.00;99179.88;10370159;28;20479;-62
2023/10/25 19:13:43;;;;;;;1999.90;999.90;;;;;;;16.90;79.79;99180.91;10352860;28;20108;-62
2023/10/25 19:18:46;;;;;;;1999.90;999.90;;;;;;;17.28;77.61;99186.41;10370516;28;20049;-62
2023/10/25 19:23:56;;;;;;;1999.90;999.90;;;;;;;16.97;79.70;99189.81;10370432;28;20050;-62
2023/10/25 19:29:01;;;;;;;1999.90;999.90;;;;;;;16.36;80.07;99194.63;10369615;28;20130;-62
2023/10/25 19:34:04;;;;;;;1999.90;999.90;;;;;;;16.76;81.80;99203.53;10369725;28;20498;-62
2023/10/25 19:39:07;;;;;;;1999.90;999.90;;;;;;;17.06;79.30;99212.59;10369314;28;20516;-62
2023/10/25 19:44:10;;;;;;;1999.90;999.90;;;;;;;17.14;79.20;99224.16;10351887;28;20057;-62
2023/10/25 19:49:12;;;;;;;1999.90;999.90;;;;;;;16.82;81.04;99229.28;10369595;28;20052;-62
2023/10/25 19:54:14;;;;;;;1999.90;999.90;;;;;;;17.04;80.14;99238.34;10368661;28;20127;-62
2023/10/25 19:59:18;;;;;;;1999.90;999.90;;;;;;;16.58;82.53;99242.50;10369277;28;20126;-62
2023/10/25 20:04:21;;;;;;;1999.90;999.90;;;;;;;15.89;85.25;99248.81;10368491;28;20133;-62
2023/10/25 20:09:23;;;;;;;1999.90;999.90;;;;;;;15.91;83.97;99256.59;10368997;28;20129;-62
2023/10/25 20:14:26;;;;;;;1999.90;999.90;;;;;;;16.87;82.26;99252.59;10368223;28;20487;-62
2023/10/25 20:19:28;;;;;;;1999.90;999.90;;;;;;;16.62;81.91;99265.78;10368156;28;20049;-62
2023/10/25 20:24:33;;;;;;;1999.90;999.90;;;;;;;17.07;78.94;99276.88;10368660;28;20129;-62
2023/10/25 20:29:39;;;;;;;1999.90;999.90;;;;;;;16.56;82.45;99262.97;10367807;28;20566;-62
2023/10/25 20:34:42;;;;;;;1999.90;999.90;;;;;;;16.58;82.26;99271.56;10368529;28;20050;-62
2023/10/25 20:39:45;;;;;;;1999.90;999.90;;;;;;;16.97;79.19;99279.69;10367643;28;20061;-62
2023/10/25 20:44:47;;;;;;;1999.90;999.90;;;;;;;16.92;79.03;99283.84;10350937;28;20060;-62
2023/10/25 20:49:49;;;;;;;1999.90;999.90;;;;;;;17.33;76.91;99291.69;10367881;28;20053;-62
2023/10/25 20:54:53;;;;;;;1999.90;999.90;;;;;;;16.83;78.36;99294.38;10349880;28;20068;-62
2023/10/25 20:59:55;;;;;;;1999.90;999.90;;;;;;;17.28;75.74;99302.78;10367783;28;20054;-62
2023/10/25 21:04:59;;;;;;;1999.90;999.90;;;;;;;17.17;76.21;99306.59;10367034;28;20394;-62
2023/10/25 21:10:01;;;;;;;1999.90;999.90;;;;;;;16.99;76.40;99306.78;10367521;28;20050;-62
2023/10/25 21:15:04;;;;;;;1999.90;999.90;;;;;;;17.11;77.05;99319.66;10367560;28;20081;-62
2023/10/25 21:20:08;;;;;;;1999.90;999.90;;;;;;;16.51;79.38;99325.06;10372888;28;20050;-62
2023/10/25 21:25:10;;;;;;;1999.90;999.90;;;;;;;16.67;80.42;99320.78;10373535;28;20054;-62
2023/10/25 21:30:12;;;;;;;1999.90;999.90;;;;;;;16.90;77.96;99316.53;10373955;28;20059;-62
2023/10/25 21:35:15;;;;;;;1999.90;999.90;;;;;;;16.21;81.22;99326.47;10373848;28;20061;-62
2023/10/25 21:40:18;;;;;;;1999.90;999.90;;;;;;;16.18;80.83;99331.25;10373018;28;20479;-62
2023/10/25 21:45:20;;;;;;;1999.90;999.90;;;;;;;16.35;80.78;99338.22;10372931;28;20049;-62
2023/10/25 21:50:23;;;;;;;1999.90;999.90;;;;;;;16.58;78.87;99342.91;10372590;28;20406;-62
2023/10/25 21:55:25;;;;;;;1999.90;999.90;;;;;;;16.29;81.73;99354.69;10372485;28;20057;-62
2023/10/25 22:00:33;;;;;;;1999.90;999.90;;;;;;;16.32;81.39;99362.31;10356609;28;20046;-62
2023/10/25 22:05:38;;;;;;;1999.90;999.90;;;;;;;16.00;82.81;99365.66;10414877;23;20139;-60
2023/10/25 22:10:40;;;;;;;1999.90;999.90;;;;;;;16.59;79.46;99363.84;10526857;28;20044;-60